Time;durP1;ratioP1;P1;durP2;ratioP2;P2;SDS_P1;SDS_P2;PMS_P1;PMS_P2;Temp;Humidity;BMP_temperature;BMP_pressure;BME280_temperature;BME280_humidity;BME280_pressure;Samples;Min_cycle;Max_cycle;Signal;HPM_P1;HPM_P2
2023/08/09 00:01:49;;;;;;;2.17;1.77;;;11.90;99.90;;;;;;4954133;29;20079;-73
2023/08/09 00:04:14;;;;;;;9.77;3.10;;;12.00;99.90;;;;;;4954109;29;20047;-72
2023/08/09 00:06:40;;;;;;;4.40;2.85;;;12.00;99.90;;;;;;4953852;29;20489;-73
2023/08/09 00:09:06;;;;;;;6.07;3.08;;;12.10;99.90;;;;;;4936807;29;20055;-72
2023/08/09 00:11:32;;;;;;;7.93;2.63;;;12.10;99.90;;;;;;4954179;28;20482;-73
2023/08/09 00:13:58;;;;;;;3.20;2.22;;;12.10;99.90;;;;;;4957502;29;20046;-72
2023/08/09 00:16:23;;;;;;;7.75;2.33;;;12.20;99.90;;;;;;4957695;29;20094;-72
2023/08/09 00:18:49;;;;;;;4.65;2.25;;;12.20;99.90;;;;;;4939966;29;20111;-73
2023/08/09 00:21:14;;;;;;;3.03;1.95;;;12.20;99.90;;;;;;4957578;29;20058;-72
2023/08/09 00:23:40;;;;;;;5.05;2.63;;;12.20;99.90;;;;;;4957595;29;20168;-73
2023/08/09 00:26:06;;;;;;;3.88;2.38;;;12.20;99.90;;;;;;4939890;29;20414;-72
2023/08/09 00:28:32;;;;;;;4.13;1.95;;;12.30;99.90;;;;;;4939629;29;20061;-73
2023/08/09 00:30:58;;;;;;;5.25;2.13;;;12.30;99.90;;;;;;4923994;29;20126;-72
2023/08/09 00:33:23;;;;;;;3.85;2.50;;;12.30;99.90;;;;;;4939852;29;20394;-72
2023/08/09 00:35:49;;;;;;;3.42;2.67;;;12.30;99.90;;;;;;4940011;29;20050;-72
2023/08/09 00:38:15;;;;;;;9.57;3.55;;;12.30;99.90;;;;;;4956942;29;20046;-73
2023/08/09 00:40:40;;;;;;;10.88;3.17;;;12.40;99.90;;;;;;4939609;29;20549;-72
2023/08/09 00:43:06;;;;;;;3.53;1.70;;;12.40;99.90;;;;;;4939686;29;20054;-72
2023/08/09 00:45:33;;;;;;;9.23;3.00;;;12.30;99.90;;;;;;4956974;29;20066;-73
2023/08/09 00:48:00;;;;;;;8.07;2.65;;;12.40;99.90;;;;;;4956853;29;20071;-72
2023/08/09 00:50:26;;;;;;;3.92;2.95;;;12.30;99.90;;;;;;4955432;29;20085;-72
2023/08/09 00:52:52;;;;;;;6.63;2.35;;;12.30;99.90;;;;;;4971740;28;20498;-72
2023/08/09 00:55:18;;;;;;;33.50;3.78;;;12.30;99.90;;;;;;4956750;29;20114;-73
2023/08/09 00:57:46;;;;;;;14.25;3.33;;;12.40;99.90;;;;;;4939089;29;20125;-73
2023/08/09 01:00:12;;;;;;;22.48;3.65;;;12.40;99.90;;;;;;4955794;28;20082;-73
2023/08/09 01:02:37;;;;;;;69.18;5.13;;;12.40;99.90;;;;;;4923757;29;20418;-73
2023/08/09 01:05:04;;;;;;;3.78;3.40;;;12.40;99.90;;;;;;4939540;29;20075;-73
2023/08/09 01:07:55;;;;;;;9.15;3.05;;;12.40;99.90;;;;;;4956436;29;20204;-72
2023/08/09 01:10:42;;;;;;;105.75;6.22;;;12.40;99.90;;;;;;4956385;29;20039;-72
2023/08/09 01:13:09;;;;;;;88.18;5.10;;;12.40;99.90;;;;;;4956610;29;20043;-72
2023/08/09 01:15:39;;;;;;;77.28;5.57;;;12.40;99.90;;;;;;4956405;29;20039;-72
2023/08/09 01:18:08;;;;;;;20.80;3.90;;;12.40;99.90;;;;;;4938966;29;20093;-73
2023/08/09 01:20:36;;;;;;;106.57;6.00;;;12.50;99.90;;;;;;4956227;29;20114;-72
2023/08/09 01:23:05;;;;;;;46.13;4.50;;;12.50;99.90;;;;;;4970852;28;20143;-72
2023/08/09 01:25:32;;;;;;;19.77;4.28;;;12.50;99.90;;;;;;4955387;29;20039;-73
2023/08/09 01:31:38;;;;;;;66.45;5.20;;;12.50;99.90;;;;;;4955902;28;20533;-73
2023/08/09 01:34:04;;;;;;;50.67;5.53;;;12.60;99.90;;;;;;4955930;29;20039;-72
2023/08/09 01:36:35;;;;;;;38.17;5.13;;;12.60;99.90;;;;;;4938722;29;20047;-73
2023/08/09 01:39:07;;;;;;;104.75;7.05;;;12.60;99.90;;;;;;4955981;29;20039;-73
2023/08/09 01:41:34;;;;;;;101.90;6.40;;;12.60;99.90;;;;;;4970794;28;20035;-72
2023/08/09 01:44:00;;;;;;;71.18;5.78;;;12.60;99.90;;;;;;4955969;29;20043;-73
2023/08/09 01:46:26;;;;;;;164.98;8.63;;;12.60;99.90;;;;;;4956007;29;20039;-73
2023/08/09 01:48:51;;;;;;;117.88;7.63;;;12.60;99.90;;;;;;4938325;29;20058;-73
2023/08/09 01:51:17;;;;;;;67.78;5.63;;;12.60;99.90;;;;;;4938528;29;20047;-73
2023/08/09 01:53:42;;;;;;;101.35;6.97;;;12.50;99.90;;;;;;4938444;29;20043;-73
2023/08/09 01:56:08;;;;;;;57.50;5.78;;;12.60;99.90;;;;;;4955695;29;20035;-72
2023/08/09 01:58:33;;;;;;;68.75;6.55;;;12.60;99.90;;;;;;4955364;29;20125;-73
2023/08/09 02:00:59;;;;;;;34.35;4.63;;;12.50;99.90;;;;;;4955345;29;20046;-72
2023/08/09 02:03:25;;;;;;;27.77;4.90;;;12.50;99.90;;;;;;4922526;29;20047;-72
2023/08/09 02:05:51;;;;;;;19.13;4.47;;;12.50;99.90;;;;;;4955506;29;20382;-72
2023/08/09 02:08:17;;;;;;;20.05;5.00;;;12.40;99.90;;;;;;4955423;29;20050;-72
2023/08/09 02:10:43;;;;;;;16.92;4.65;;;12.40;99.90;;;;;;4955523;29;20422;-73
2023/08/09 02:16:49;;;;;;;16.88;5.78;;;12.40;99.90;;;;;;4955200;29;20457;-73
2023/08/09 02:19:15;;;;;;;8.65;4.10;;;12.30;99.90;;;;;;4937737;29;20039;-73
2023/08/09 02:21:44;;;;;;;42.38;5.15;;;12.30;99.90;;;;;;4938296;29;20038;-73
2023/08/09 02:24:10;;;;;;;62.97;5.30;;;12.30;99.90;;;;;;4938003;29;20118;-73
2023/08/09 02:26:38;;;;;;;44.72;5.50;;;12.30;99.90;;;;;;4954787;29;20159;-73
2023/08/09 02:29:04;;;;;;;22.73;4.78;;;12.30;99.90;;;;;;4954994;29;20043;-73
2023/08/09 02:31:31;;;;;;;106.57;6.10;;;12.20;99.90;;;;;;4954998;29;20054;-72
2023/08/09 02:33:57;;;;;;;34.67;4.75;;;12.20;99.90;;;;;;4954917;29;20054;-72
2023/08/09 02:36:23;;;;;;;56.42;5.18;;;12.20;99.90;;;;;;4969363;28;20079;-72
2023/08/09 02:38:49;;;;;;;68.68;5.43;;;12.10;99.90;;;;;;4969536;28;20047;-73
2023/08/09 02:41:15;;;;;;;69.85;5.95;;;12.10;99.90;;;;;;4955006;29;20046;-73
2023/08/09 02:43:40;;;;;;;130.52;6.60;;;12.00;99.90;;;;;;4954987;29;20430;-73
2023/08/09 02:46:06;;;;;;;55.95;5.78;;;12.00;99.90;;;;;;4937533;29;20043;-73
2023/08/09 02:48:32;;;;;;;18.08;3.45;;;12.00;99.90;;;;;;4954792;29;20039;-73
2023/08/09 02:50:58;;;;;;;37.88;5.05;;;12.00;99.90;;;;;;4954562;29;20043;-73
2023/08/09 02:53:32;;;;;;;23.38;4.70;;;12.00;99.90;;;;;;4954888;29;20078;-73
2023/08/09 02:55:57;;;;;;;72.18;7.00;;;12.00;99.90;;;;;;4954582;29;20550;-73
2023/08/09 02:58:23;;;;;;;44.65;5.32;;;11.90;99.90;;;;;;4937521;29;20047;-73
2023/08/09 03:00:48;;;;;;;67.50;6.05;;;11.90;99.90;;;;;;4937306;29;20039;-73
2023/08/09 03:03:14;;;;;;;64.57;6.68;;;11.90;99.90;;;;;;4937709;29;20043;-73
2023/08/09 03:05:40;;;;;;;40.28;5.28;;;11.90;99.90;;;;;;4954814;29;20062;-73
2023/08/09 03:08:05;;;;;;;6.93;4.53;;;11.90;99.90;;;;;;4954185;29;20039;-73
2023/08/09 03:10:31;;;;;;;36.05;5.85;;;11.90;99.90;;;;;;4954624;29;20039;-73
2023/08/09 03:12:57;;;;;;;36.28;6.15;;;11.90;99.90;;;;;;4937635;29;20105;-73
2023/08/09 03:15:23;;;;;;;19.17;5.63;;;11.90;99.90;;;;;;4937195;29;20043;-73
2023/08/09 03:17:49;;;;;;;21.85;6.18;;;11.90;99.90;;;;;;4937172;29;20053;-73
2023/08/09 03:20:15;;;;;;;65.53;7.88;;;11.90;99.90;;;;;;4937121;29;20491;-73
2023/08/09 03:22:50;;;;;;;34.20;5.88;;;11.90;99.90;;;;;;4969705;28;20047;-73
2023/08/09 03:25:16;;;;;;;68.85;7.53;;;11.90;99.90;;;;;;4954405;29;20395;-73
2023/08/09 03:27:41;;;;;;;42.65;5.75;;;11.90;99.90;;;;;;4937360;29;20054;-73
2023/08/09 03:30:08;;;;;;;77.53;6.60;;;11.80;99.90;;;;;;4954581;29;20047;-73
2023/08/09 03:32:35;;;;;;;74.97;6.38;;;11.90;99.90;;;;;;4969242;28;20046;-73
2023/08/09 03:35:01;;;;;;;141.18;8.35;;;11.80;99.90;;;;;;4969394;28;20043;-73
2023/08/09 03:37:27;;;;;;;106.50;7.25;;;11.80;99.90;;;;;;4954541;29;20054;-73
2023/08/09 03:39:53;;;;;;;56.15;5.30;;;11.80;99.90;;;;;;4937469;29;20047;-73
2023/08/09 03:42:18;;;;;;;134.82;7.55;;;11.80;99.90;;;;;;4937520;29;20051;-73
2023/08/09 03:44:44;;;;;;;38.75;4.85;;;11.70;99.90;;;;;;4969568;28;20126;-73
2023/08/09 03:47:09;;;;;;;9.95;4.10;;;11.70;99.90;;;;;;4955460;28;20047;-73
2023/08/09 03:49:35;;;;;;;78.88;6.70;;;11.70;99.90;;;;;;4940874;29;20047;-72
2023/08/09 03:52:00;;;;;;;25.45;5.70;;;11.70;99.90;;;;;;4958054;29;20075;-73
2023/08/09 03:54:26;;;;;;;60.95;8.25;;;11.70;99.90;;;;;;4940452;29;20047;-73
2023/08/09 03:56:52;;;;;;;19.83;5.32;;;11.60;99.90;;;;;;4972693;28;20043;-72
2023/08/09 03:59:17;;;;;;;72.60;6.25;;;11.60;99.90;;;;;;4958038;29;20283;-73
2023/08/09 04:01:43;;;;;;;16.42;4.68;;;11.60;99.90;;;;;;4958213;29;20031;-72
2023/08/09 04:04:08;;;;;;;18.48;4.90;;;11.60;99.90;;;;;;4940583;29;20079;-73
2023/08/09 04:06:34;;;;;;;26.63;4.80;;;11.60;99.90;;;;;;4957953;29;20046;-73
2023/08/09 04:09:00;;;;;;;8.48;4.95;;;11.60;99.90;;;;;;4940718;29;20114;-73
2023/08/09 04:11:25;;;;;;;9.27;5.43;;;11.50;99.90;;;;;;4958102;29;20046;-73
2023/08/09 04:13:51;;;;;;;5.78;5.28;;;11.50;99.90;;;;;;4940531;29;20051;-73
2023/08/09 04:16:16;;;;;;;5.18;4.78;;;11.50;99.90;;;;;;4957858;29;20122;-73
2023/08/09 04:18:42;;;;;;;5.20;4.82;;;11.50;99.90;;;;;;4956756;29;20047;-73
2023/08/09 04:21:07;;;;;;;6.45;5.68;;;11.50;99.90;;;;;;4957579;29;20035;-73
2023/08/09 04:23:33;;;;;;;6.05;5.55;;;11.50;99.90;;;;;;4940312;29;20163;-73
2023/08/09 04:26:00;;;;;;;6.32;5.82;;;11.50;99.90;;;;;;4939944;29;20082;-73
2023/08/09 04:28:26;;;;;;;6.50;6.00;;;11.50;99.90;;;;;;4972251;28;20051;-73
2023/08/09 04:30:52;;;;;;;5.72;5.22;;;11.50;99.90;;;;;;4957434;29;20050;-73
2023/08/09 04:33:18;;;;;;;6.13;5.63;;;11.50;99.90;;;;;;4939938;29;20083;-73
2023/08/09 04:35:44;;;;;;;6.63;6.00;;;11.50;99.90;;;;;;4939898;29;20043;-73
2023/08/09 04:38:09;;;;;;;7.63;6.93;;;11.50;99.90;;;;;;4940088;29;20066;-73
2023/08/09 04:40:36;;;;;;;7.57;5.90;;;11.50;99.90;;;;;;4957297;29;20031;-73
2023/08/09 04:43:03;;;;;;;6.95;6.35;;;11.60;99.90;;;;;;4971929;28;20065;-73
2023/08/09 04:45:29;;;;;;;6.47;5.88;;;11.60;99.90;;;;;;4940110;29;20479;-73
2023/08/09 04:47:56;;;;;;;6.97;6.40;;;11.70;99.90;;;;;;4971471;28;20054;-73
2023/08/09 04:50:23;;;;;;;6.57;6.07;;;11.70;99.90;;;;;;4957158;29;20051;-73
2023/08/09 04:52:49;;;;;;;6.38;5.78;;;11.80;99.90;;;;;;4971716;28;20058;-73
2023/08/09 04:55:15;;;;;;;6.07;5.63;;;11.90;99.90;;;;;;4939789;29;20043;-73
2023/08/09 04:57:41;;;;;;;6.00;5.50;;;11.90;99.90;;;;;;4956598;28;20073;-73
2023/08/09 05:00:08;;;;;;;5.70;5.15;;;12.00;99.90;;;;;;4939470;29;20483;-73
2023/08/09 05:02:36;;;;;;;6.05;5.60;;;12.10;99.90;;;;;;4956914;29;20505;-73
2023/08/09 05:05:03;;;;;;;5.22;4.82;;;12.10;99.90;;;;;;4939653;29;20047;-73
2023/08/09 05:07:29;;;;;;;5.28;4.88;;;12.20;99.90;;;;;;4956696;29;20039;-73
2023/08/09 05:09:54;;;;;;;5.15;4.75;;;12.20;99.90;;;;;;4956734;29;20372;-73
2023/08/09 05:12:20;;;;;;;5.80;5.10;;;12.30;99.90;;;;;;4956936;29;20506;-73
2023/08/09 05:14:45;;;;;;;5.15;4.75;;;12.30;99.90;;;;;;4938997;29;20047;-73
2023/08/09 05:17:11;;;;;;;5.05;4.65;;;12.40;99.90;;;;;;4971252;28;20043;-73
2023/08/09 05:19:37;;;;;;;5.47;4.95;;;12.50;99.90;;;;;;4939265;29;20467;-73
2023/08/09 05:22:02;;;;;;;5.43;5.03;;;12.50;99.90;;;;;;4956726;29;20060;-73
2023/08/09 05:24:28;;;;;;;4.55;4.15;;;12.80;99.90;;;;;;4956493;29;20163;-73
2023/08/09 05:26:53;;;;;;;3.55;3.25;;;13.60;99.90;;;;;;4956310;29;20071;-74
2023/08/09 05:29:19;;;;;;;2.42;2.22;;;14.90;99.90;;;;;;4923181;29;20514;-73
2023/08/09 05:31:44;;;;;;;1.65;1.55;;;16.80;99.90;;;;;;4956310;29;20375;-74
2023/08/09 05:34:10;;;;;;;3.83;1.60;;;18.60;99.90;;;;;;4938937;29;20054;-74
2023/08/09 05:36:35;;;;;;;3.75;1.27;;;20.20;99.90;;;;;;4955995;29;20043;-74
2023/08/09 05:39:01;;;;;;;1.40;1.30;;;21.60;99.90;;;;;;4956156;29;20066;-74
2023/08/09 05:41:27;;;;;;;2.45;1.17;;;22.80;99.90;;;;;;4956241;29;20043;-74
2023/08/09 05:43:53;;;;;;;1.30;1.20;;;23.90;99.90;;;;;;4956097;29;20053;-74
2023/08/09 05:46:19;;;;;;;2.22;1.20;;;24.80;99.90;;;;;;4938805;29;20465;-74
2023/08/09 05:48:45;;;;;;;1.70;1.20;;;25.70;99.90;;;;;;4955935;29;20078;-74
2023/08/09 05:51:11;;;;;;;2.95;1.33;;;26.30;99.90;;;;;;4970753;28;20110;-74
2023/08/09 05:57:17;;;;;;;1.20;1.00;;;25.70;99.90;;;;;;4955584;29;20038;-75
2023/08/09 05:59:43;;;;;;;1.10;0.90;;;24.60;99.90;;;;;;4938444;29;20039;-75
2023/08/09 06:02:09;;;;;;;1.05;1.02;;;24.10;99.90;;;;;;4955798;29;20035;-75
2023/08/09 06:08:15;;;;;;;1.27;1.10;;;23.10;99.90;;;;;;4955739;29;20224;-75
2023/08/09 06:10:42;;;;;;;1.50;1.20;;;22.60;99.90;;;;;;4954498;28;20138;-75
2023/08/09 06:13:07;;;;;;;1.15;1.02;;;22.40;99.90;;;;;;4956694;29;20134;-76
2023/08/09 06:15:33;;;;;;;1.40;1.25;;;22.30;99.90;;;;;;4939283;29;20478;-76
2023/08/09 06:17:59;;;;;;;3.78;1.70;;;22.10;99.90;;;;;;4938458;29;20040;-76
2023/08/09 06:20:27;;;;;;;2.15;0.98;;;22.10;99.90;;;;;;4955592;29;20039;-76
2023/08/09 06:22:53;;;;;;;1.50;1.00;;;22.00;99.90;;;;;;4955731;29;20043;-76
2023/08/09 06:25:19;;;;;;;1.65;1.42;;;21.90;99.90;;;;;;4955104;29;20043;-76
2023/08/09 06:27:45;;;;;;;1.02;0.90;;;21.90;99.90;;;;;;4937897;29;20046;-76
2023/08/09 06:30:11;;;;;;;1.83;1.10;;;21.90;99.90;;;;;;4938309;29;20043;-76
2023/08/09 06:32:37;;;;;;;1.10;0.90;;;21.90;99.90;;;;;;4954812;29;20498;-77
2023/08/09 06:35:04;;;;;;;1.30;1.00;;;21.90;99.90;;;;;;4955074;29;20051;-76
2023/08/09 06:41:11;;;;;;;1.83;1.15;;;21.90;99.90;;;;;;4954967;29;20035;-76
2023/08/09 06:43:36;;;;;;;2.90;0.80;;;21.80;99.90;;;;;;4938238;29;20406;-77
2023/08/09 06:46:03;;;;;;;3.67;0.90;;;21.90;99.90;;;;;;4954850;29;20464;-77
2023/08/09 06:48:29;;;;;;;1.58;0.90;;;21.90;99.90;;;;;;4969488;28;20080;-77
2023/08/09 06:51:00;;;;;;;1.48;0.73;;;21.90;99.90;;;;;;4937843;29;20042;-77
2023/08/09 06:53:26;;;;;;;1.20;1.00;;;21.80;99.90;;;;;;4969628;28;20056;-78
2023/08/09 06:55:52;;;;;;;1.70;1.27;;;21.80;99.90;;;;;;4937469;29;20211;-77
2023/08/09 06:58:17;;;;;;;2.55;0.98;;;21.80;99.90;;;;;;4954548;29;20495;-76
2023/08/09 07:00:46;;;;;;;2.13;1.10;;;21.80;99.90;;;;;;4937346;29;20054;-77
2023/08/09 07:03:12;;;;;;;1.80;0.65;;;21.80;99.90;;;;;;4937815;29;20410;-78
2023/08/09 07:05:37;;;;;;;2.15;1.00;;;21.80;99.90;;;;;;4937399;29;20047;-78
2023/08/09 07:08:03;;;;;;;2.03;1.13;;;21.80;99.90;;;;;;4937561;29;20043;-78
2023/08/09 07:10:29;;;;;;;4.05;1.00;;;21.80;99.90;;;;;;4969477;28;20080;-77
2023/08/09 07:16:35;;;;;;;1.92;0.70;;;21.90;99.90;;;;;;4954624;29;20107;-77
2023/08/09 07:19:02;;;;;;;2.80;1.40;;;22.00;99.90;;;;;;4954873;29;20153;-77
2023/08/09 07:21:28;;;;;;;1.83;1.15;;;22.00;99.90;;;;;;4953673;29;20050;-77
2023/08/09 07:23:54;;;;;;;1.27;0.88;;;22.10;99.90;;;;;;4954634;29;20035;-77
2023/08/09 07:26:19;;;;;;;3.50;0.90;;;22.10;99.90;;;;;;4969445;28;20497;-76
2023/08/09 07:28:45;;;;;;;0.93;0.80;;;22.20;99.90;;;;;;4954595;29;20491;-77
2023/08/09 07:31:22;;;;;;;3.90;1.00;;;22.40;99.90;;;;;;4954711;29;20051;-77
2023/08/09 07:33:48;;;;;;;1.92;0.95;;;22.30;99.90;;;;;;4954206;29;20467;-76
2023/08/09 07:36:14;;;;;;;2.67;0.85;;;22.30;99.90;;;;;;4954410;28;20046;-76
2023/08/09 07:38:39;;;;;;;1.42;1.00;;;22.20;99.90;;;;;;4921076;29;20118;-76
2023/08/09 07:41:05;;;;;;;3.42;1.00;;;22.10;99.90;;;;;;4937305;29;20054;-77
2023/08/09 07:43:31;;;;;;;1.27;0.90;;;22.20;99.90;;;;;;4954282;29;20209;-77
2023/08/09 07:45:57;;;;;;;2.13;0.80;;;22.10;99.90;;;;;;4954266;29;20490;-76
2023/08/09 07:48:22;;;;;;;2.13;1.17;;;22.20;99.90;;;;;;4954086;29;20050;-76
2023/08/09 07:50:48;;;;;;;3.75;1.38;;;22.20;99.90;;;;;;4937145;29;20047;-76
2023/08/09 07:53:14;;;;;;;1.48;0.90;;;22.40;99.90;;;;;;4936814;29;20051;-76
2023/08/09 07:55:40;;;;;;;5.53;1.17;;;22.30;99.90;;;;;;4936886;29;20127;-77
2023/08/09 07:58:06;;;;;;;1.35;0.93;;;22.10;99.90;;;;;;4937169;29;20118;-76
2023/08/09 08:00:31;;;;;;;1.90;0.90;;;22.10;99.90;;;;;;4936980;29;20047;-76
2023/08/09 08:02:57;;;;;;;2.92;1.10;;;22.00;99.90;;;;;;4937056;29;20047;-77
2023/08/09 08:05:23;;;;;;;2.03;1.10;;;22.20;99.90;;;;;;4954105;29;20050;-77
2023/08/09 08:07:48;;;;;;;2.05;1.35;;;22.10;99.90;;;;;;4936810;29;20405;-76
2023/08/09 08:10:14;;;;;;;1.00;0.60;;;22.20;99.90;;;;;;4936941;29;20040;-76
2023/08/09 08:12:42;;;;;;;1.80;1.00;;;22.20;99.90;;;;;;4936859;29;20047;-76
2023/08/09 08:15:08;;;;;;;1.38;0.70;;;22.40;99.90;;;;;;4936932;29;20566;-76
2023/08/09 08:17:34;;;;;;;2.47;1.50;;;22.40;99.90;;;;;;4954009;29;20118;-76
2023/08/09 08:20:00;;;;;;;3.78;1.08;;;22.40;99.90;;;;;;4954440;29;20118;-76
2023/08/09 08:22:26;;;;;;;2.75;0.50;;;22.70;99.90;;;;;;4954055;29;20565;-76
2023/08/09 08:24:52;;;;;;;3.15;0.73;;;22.70;99.90;;;;;;4936526;29;20511;-76
2023/08/09 08:27:18;;;;;;;3.10;1.05;;;22.70;99.90;;;;;;4953941;29;20040;-77
2023/08/09 08:29:43;;;;;;;1.92;0.52;;;22.80;99.90;;;;;;4936832;29;20058;-77
2023/08/09 08:32:10;;;;;;;2.25;0.70;;;22.80;99.90;;;;;;4940009;28;20047;-77
2023/08/09 08:34:37;;;;;;;2.42;0.50;;;22.90;99.90;;;;;;4940073;29;20047;-77
2023/08/09 08:37:04;;;;;;;4.38;0.40;;;23.00;99.90;;;;;;4957175;29;20393;-77
2023/08/09 08:39:31;;;;;;;3.25;0.80;;;23.20;99.90;;;;;;4957553;29;20047;-77
2023/08/09 08:41:57;;;;;;;1.30;0.80;;;23.30;99.90;;;;;;4957474;28;20172;-77
2023/08/09 08:44:24;;;;;;;4.30;0.60;;;23.10;99.90;;;;;;4939728;29;20043;-77
2023/08/09 08:46:51;;;;;;;2.25;0.40;;;23.00;99.90;;;;;;4939917;29;20078;-77
2023/08/09 08:49:19;;;;;;;1.80;0.50;;;23.00;99.90;;;;;;4939821;29;20048;-77
2023/08/09 08:51:49;;;;;;;1.75;0.47;;;22.70;99.90;;;;;;4939967;29;20118;-77
2023/08/09 08:54:15;;;;;;;2.45;0.30;;;22.80;99.90;;;;;;4956682;29;20086;-77
2023/08/09 08:56:41;;;;;;;2.40;0.45;;;23.10;99.90;;;;;;4971387;28;20058;-77
2023/08/09 08:59:08;;;;;;;4.50;1.10;;;23.00;99.90;;;;;;4957183;29;20040;-77
2023/08/09 09:05:19;;;;;;;1.13;0.60;;;22.40;99.90;;;;;;4956632;29;20171;-77
2023/08/09 09:07:46;;;;;;;2.22;0.43;;;22.30;99.90;;;;;;4939856;29;20122;-77
2023/08/09 09:10:12;;;;;;;2.35;0.82;;;22.10;99.90;;;;;;4971638;28;20051;-76
2023/08/09 09:12:39;;;;;;;2.38;0.43;;;21.90;99.90;;;;;;4956751;29;20394;-77
2023/08/09 09:15:06;;;;;;;2.70;0.57;;;22.00;99.90;;;;;;4956506;29;20047;-77
2023/08/09 09:17:39;;;;;;;2.13;0.40;;;22.30;99.90;;;;;;4947380;28;20079;-77
2023/08/09 09:20:23;;;;;;;2.25;0.55;;;22.60;99.90;;;;;;4942524;28;20600;-77
2023/08/09 09:22:49;;;;;;;3.72;0.30;;;22.80;99.90;;;;;;4948150;28;20401;-77
2023/08/09 09:25:17;;;;;;;1.10;0.30;;;22.50;99.90;;;;;;4925451;29;20046;-76
2023/08/09 09:27:45;;;;;;;1.40;0.35;;;22.40;99.90;;;;;;4941344;29;20118;-76
2023/08/09 09:30:14;;;;;;;1.75;0.30;;;22.40;99.90;;;;;;4945190;28;20118;-77
2023/08/09 09:32:51;;;;;;;3.60;0.30;;;22.50;99.90;;;;;;4926999;28;20039;-77
2023/08/09 09:35:18;;;;;;;3.10;0.40;;;23.00;99.90;;;;;;4946425;28;20542;-77
2023/08/09 09:37:47;;;;;;;0.82;0.30;;;23.20;99.90;;;;;;4943932;29;20391;-77
2023/08/09 09:40:24;;;;;;;3.15;0.50;;;23.00;99.90;;;;;;4946713;29;20079;-77
2023/08/09 09:42:53;;;;;;;2.42;0.57;;;22.90;99.90;;;;;;4944161;28;20119;-77
2023/08/09 09:45:27;;;;;;;2.08;0.30;;;22.70;99.90;;;;;;4956986;28;20047;-77
2023/08/09 09:47:55;;;;;;;1.88;0.35;;;22.70;99.90;;;;;;4947681;28;20047;-76
2023/08/09 09:50:25;;;;;;;1.75;0.40;;;22.80;99.90;;;;;;4929360;29;20040;-76
2023/08/09 09:52:52;;;;;;;2.20;0.40;;;22.90;99.90;;;;;;4927530;28;20422;-77
2023/08/09 09:55:25;;;;;;;1.60;0.40;;;22.90;99.90;;;;;;4959699;28;20045;-77
2023/08/09 09:57:54;;;;;;;1.80;0.70;;;22.80;99.90;;;;;;4959345;28;20051;-77
2023/08/09 10:00:20;;;;;;;0.65;0.40;;;22.50;99.60;;;;;;4927261;29;20043;-77
2023/08/09 10:02:48;;;;;;;1.05;0.40;;;22.50;99.90;;;;;;4930225;29;20391;-77
2023/08/09 10:05:18;;;;;;;1.05;0.52;;;22.30;99.80;;;;;;4926656;29;20045;-77
2023/08/09 10:07:46;;;;;;;2.60;0.63;;;22.30;99.90;;;;;;4927895;29;20043;-76
2023/08/09 10:10:13;;;;;;;2.15;0.40;;;22.20;99.90;;;;;;4960306;28;20054;-77
2023/08/09 10:12:47;;;;;;;1.13;0.25;;;22.20;99.90;;;;;;4944912;28;20051;-77
2023/08/09 10:15:17;;;;;;;1.83;0.43;;;22.00;99.70;;;;;;4928020;29;20062;-77
2023/08/09 10:17:44;;;;;;;1.02;0.40;;;21.90;99.90;;;;;;4928682;29;20043;-77
2023/08/09 10:20:12;;;;;;;1.83;0.35;;;21.90;99.90;;;;;;4959069;28;20094;-77
2023/08/09 10:22:38;;;;;;;1.15;0.30;;;21.70;99.90;;;;;;4944505;28;20048;-77
2023/08/09 10:25:04;;;;;;;1.67;0.20;;;21.70;99.80;;;;;;4958452;28;20122;-77
2023/08/09 10:27:51;;;;;;;2.67;0.28;;;21.70;99.90;;;;;;4928715;29;20043;-77
2023/08/09 10:30:19;;;;;;;2.90;0.43;;;21.70;99.90;;;;;;4927879;29;20039;-76
2023/08/09 10:32:53;;;;;;;3.25;0.40;;;21.60;99.20;;;;;;4933740;29;20043;-76
2023/08/09 10:35:20;;;;;;;5.13;0.40;;;21.50;98.30;;;;;;4944249;28;20465;-76
2023/08/09 10:37:47;;;;;;;3.20;0.50;;;21.60;99.20;;;;;;4944821;28;20107;-77
2023/08/09 10:40:16;;;;;;;4.57;0.20;;;21.50;99.40;;;;;;4944897;28;20475;-76
2023/08/09 10:42:45;;;;;;;2.53;0.28;;;21.60;98.90;;;;;;4943731;28;20673;-76
2023/08/09 10:45:11;;;;;;;2.33;0.32;;;21.60;99.20;;;;;;4927579;28;20114;-76
2023/08/09 10:47:40;;;;;;;2.63;0.45;;;21.60;98.80;;;;;;4926762;29;20043;-77
2023/08/09 10:50:07;;;;;;;1.65;0.70;;;21.60;98.80;;;;;;4942236;28;20050;-76
2023/08/09 10:52:34;;;;;;;4.38;0.52;;;21.60;99.50;;;;;;4944426;28;20089;-77
2023/08/09 10:55:18;;;;;;;2.47;0.50;;;21.70;99.90;;;;;;4930366;29;20054;-77
2023/08/09 10:57:47;;;;;;;0.47;0.30;;;21.80;99.90;;;;;;4928490;29;20126;-76
2023/08/09 11:00:13;;;;;;;0.75;0.30;;;21.90;99.90;;;;;;4959141;28;20079;-76
2023/08/09 11:02:53;;;;;;;0.77;0.40;;;21.80;99.30;;;;;;4944800;28;20042;-76
2023/08/09 11:05:20;;;;;;;3.95;0.73;;;21.80;98.00;;;;;;4924565;29;20554;-76
2023/08/09 11:07:47;;;;;;;1.42;0.60;;;21.80;99.00;;;;;;4956364;28;20082;-76
2023/08/09 11:10:12;;;;;;;2.90;0.47;;;21.80;98.70;;;;;;4956017;28;20308;-76
2023/08/09 11:12:43;;;;;;;3.60;0.45;;;21.90;99.60;;;;;;4942578;28;20093;-76
2023/08/09 11:15:09;;;;;;;1.50;0.43;;;21.90;99.90;;;;;;4944672;29;20047;-76
2023/08/09 11:17:36;;;;;;;2.25;0.50;;;21.90;99.90;;;;;;4945650;28;20035;-76
2023/08/09 11:20:13;;;;;;;5.60;0.50;;;22.10;99.90;;;;;;4958492;28;20052;-76
2023/08/09 11:22:43;;;;;;;2.92;0.57;;;22.50;99.90;;;;;;4963944;28;20098;-76
2023/08/09 11:25:09;;;;;;;3.50;0.57;;;23.00;99.90;;;;;;4943108;28;20061;-76
2023/08/09 11:27:39;;;;;;;2.15;0.50;;;23.10;99.80;;;;;;4926309;29;20043;-76
2023/08/09 11:30:08;;;;;;;1.45;0.45;;;23.10;99.90;;;;;;4946208;29;20438;-76
2023/08/09 11:32:34;;;;;;;2.03;0.47;;;23.00;99.90;;;;;;4945619;28;20521;-77
2023/08/09 11:34:59;;;;;;;1.13;0.40;;;22.90;99.50;;;;;;4946768;28;20577;-76
2023/08/09 11:37:27;;;;;;;3.22;0.60;;;22.70;98.90;;;;;;4943678;28;20083;-76
2023/08/09 11:39:53;;;;;;;1.52;0.45;;;22.70;98.70;;;;;;4942355;28;20047;-76
2023/08/09 11:42:19;;;;;;;2.85;0.47;;;22.70;99.60;;;;;;4957619;28;20055;-76
2023/08/09 11:44:44;;;;;;;2.40;0.50;;;22.80;99.40;;;;;;4943210;28;20051;-76
2023/08/09 11:47:10;;;;;;;4.75;0.50;;;23.00;99.90;;;;;;4943470;28;20051;-76
2023/08/09 11:49:36;;;;;;;0.93;0.30;;;23.10;99.90;;;;;;4941752;28;20106;-76
2023/08/09 11:52:03;;;;;;;1.45;0.47;;;23.10;99.90;;;;;;4941002;28;20048;-77
2023/08/09 11:54:30;;;;;;;1.92;0.40;;;23.10;99.90;;;;;;4923830;28;20039;-76
2023/08/09 11:56:56;;;;;;;1.48;0.60;;;23.30;99.40;;;;;;4927248;29;20051;-76
2023/08/09 11:59:24;;;;;;;1.88;0.50;;;23.30;99.50;;;;;;4942473;28;20448;-76
2023/08/09 12:01:53;;;;;;;6.05;0.47;;;23.40;99.40;;;;;;4942603;28;20067;-76
2023/08/09 12:04:24;;;;;;;2.97;0.43;;;23.60;99.90;;;;;;4944075;28;20045;-76
2023/08/09 12:06:55;;;;;;;1.83;0.50;;;23.90;99.90;;;;;;4957587;28;20161;-76
2023/08/09 12:09:30;;;;;;;1.63;0.50;;;23.90;99.90;;;;;;4947420;29;20351;-77
2023/08/09 12:12:02;;;;;;;1.33;0.40;;;24.10;99.90;;;;;;4931592;29;20510;-76
2023/08/09 12:14:27;;;;;;;2.50;0.70;;;23.90;98.30;;;;;;4958232;28;20047;-76
2023/08/09 12:16:53;;;;;;;3.50;1.20;;;23.70;98.80;;;;;;4947646;28;20076;-76
2023/08/09 12:19:19;;;;;;;2.20;0.60;;;23.60;98.80;;;;;;4927962;29;20042;-76
2023/08/09 12:21:44;;;;;;;3.30;0.50;;;23.20;99.60;;;;;;4929258;28;20044;-76
2023/08/09 12:24:10;;;;;;;2.30;0.60;;;23.20;99.90;;;;;;4926969;29;20098;-77
2023/08/09 12:26:36;;;;;;;1.88;0.63;;;23.30;99.90;;;;;;4932256;29;20047;-76
2023/08/09 12:29:01;;;;;;;1.40;0.50;;;23.20;99.90;;;;;;4945310;28;20055;-76
2023/08/09 12:31:27;;;;;;;1.25;0.68;;;23.10;99.90;;;;;;4947403;28;20042;-77
2023/08/09 12:33:54;;;;;;;1.25;0.50;;;22.90;99.90;;;;;;4929781;29;20046;-77
2023/08/09 12:36:20;;;;;;;3.00;0.60;;;22.80;99.90;;;;;;4945688;28;20043;-76
2023/08/09 12:38:45;;;;;;;1.00;0.47;;;22.60;99.90;;;;;;4946995;28;20039;-76
2023/08/09 12:41:11;;;;;;;2.30;0.60;;;22.40;99.90;;;;;;4947463;28;20256;-76
2023/08/09 12:43:36;;;;;;;1.67;0.55;;;22.30;99.90;;;;;;4927664;29;20047;-76
2023/08/09 12:46:02;;;;;;;1.88;0.50;;;22.50;99.90;;;;;;4949157;28;20073;-76
2023/08/09 12:48:27;;;;;;;4.05;0.80;;;22.70;99.90;;;;;;4948287;29;20036;-76
2023/08/09 12:50:53;;;;;;;6.80;0.80;;;22.90;99.90;;;;;;4945372;29;20035;-76
2023/08/09 12:53:18;;;;;;;1.48;0.88;;;23.00;99.90;;;;;;4935923;29;20115;-76
2023/08/09 12:55:44;;;;;;;2.25;0.50;;;23.00;99.90;;;;;;4946196;29;20038;-76
2023/08/09 12:58:09;;;;;;;3.35;0.80;;;23.00;99.90;;;;;;4946061;28;20087;-76
2023/08/09 13:00:35;;;;;;;4.55;1.27;;;23.20;99.90;;;;;;4946812;28;20027;-76
2023/08/09 13:03:02;;;;;;;2.97;0.60;;;23.20;99.90;;;;;;4948494;28;20047;-76
2023/08/09 13:05:28;;;;;;;3.20;1.05;;;23.10;99.90;;;;;;4925954;29;20166;-76
2023/08/09 13:07:53;;;;;;;2.17;0.88;;;22.90;99.90;;;;;;4946509;28;20125;-76